< < Back
Terminal Aerodrome Forecast


Current Version              Previous Versions:   1  2  3  4  5  6  7  8  9  

Terminal Aerodrome Forecast

635
FTUS42 KCAE 291100
TAFCAE
TAF
KCAE 291139Z 2912/3012 35004KT P6SM SCT080=

Latest METAR

001
SAUS80 KWBC 292300
MTRCAE
METAR KCAE 292256Z 29009KT 10SM SCT090 32/12 A2991 RMK AO2 SLP124
T03170117


USA.gov is the U.S. government's official web portal to all federal, state and local government web resources and services.